Time;durP1;ratioP1;P1;durP2;ratioP2;P2;SDS_P1;SDS_P2;PMS_P1;PMS_P2;Temp;Humidity;BMP_temperature;BMP_pressure;BME280_temperature;BME280_humidity;BME280_pressure;Samples;Min_cycle;Max_cycle;Signal;HPM_P1;HPM_P2
2022/09/16 00:00:28;;;;;;;6.20;2.80;;;16.60;99.90;;;;;;5015310;28;20029;-75
2022/09/16 00:02:55;;;;;;;6.47;3.03;;;16.60;99.90;;;;;;5015803;28;20025;-75
2022/09/16 00:05:20;;;;;;;5.40;2.88;;;16.60;99.90;;;;;;5013995;28;20108;-75
2022/09/16 00:07:46;;;;;;;7.03;2.92;;;16.70;99.90;;;;;;5014531;28;20079;-76
2022/09/16 00:10:13;;;;;;;6.15;2.80;;;16.70;99.90;;;;;;5013898;28;20022;-76
2022/09/16 00:12:39;;;;;;;8.05;2.80;;;16.70;99.90;;;;;;5015730;28;20052;-76
2022/09/16 00:15:06;;;;;;;6.07;3.10;;;16.60;99.90;;;;;;5013757;28;20080;-76
2022/09/16 00:17:31;;;;;;;6.55;2.78;;;16.50;99.90;;;;;;5015584;28;20029;-75
2022/09/16 00:19:57;;;;;;;8.18;2.80;;;16.50;99.90;;;;;;5015507;28;20024;-76
2022/09/16 00:22:23;;;;;;;6.18;3.10;;;16.50;99.90;;;;;;5014886;28;20022;-75
2022/09/16 00:24:49;;;;;;;8.45;2.63;;;16.40;99.90;;;;;;5013790;28;20029;-76
2022/09/16 00:27:15;;;;;;;5.20;2.80;;;16.40;99.90;;;;;;5013631;28;20022;-76
2022/09/16 00:29:40;;;;;;;6.80;3.00;;;16.40;99.90;;;;;;5014236;28;20026;-76
2022/09/16 00:32:06;;;;;;;6.18;2.67;;;16.40;99.90;;;;;;5012919;28;20099;-76
2022/09/16 00:34:32;;;;;;;6.15;2.85;;;16.40;99.90;;;;;;5015170;28;20049;-75
2022/09/16 00:36:58;;;;;;;5.28;2.80;;;16.40;99.90;;;;;;5013961;28;20395;-76
2022/09/16 00:39:23;;;;;;;9.05;2.78;;;16.30;99.90;;;;;;5013290;28;20018;-76
2022/09/16 00:41:49;;;;;;;5.03;2.88;;;16.30;99.90;;;;;;5013814;28;20470;-75
2022/09/16 00:44:48;;;;;;;5.18;3.10;;;16.30;99.90;;;;;;5014503;28;20021;-76
2022/09/16 00:47:40;;;;;;;5.25;2.75;;;16.30;99.90;;;;;;5013185;28;20032;-76
2022/09/16 00:50:12;;;;;;;5.13;2.63;;;16.30;99.90;;;;;;5013941;28;20037;-75
2022/09/16 00:52:40;;;;;;;5.95;2.85;;;16.30;99.90;;;;;;5014623;28;20462;-75
2022/09/16 00:55:10;;;;;;;5.10;2.78;;;16.20;99.90;;;;;;5014499;28;20118;-75
2022/09/16 00:57:37;;;;;;;9.38;3.50;;;16.20;99.90;;;;;;5013667;28;20041;-76
2022/09/16 01:00:06;;;;;;;6.10;3.15;;;16.10;99.90;;;;;;5013447;28;20018;-76
2022/09/16 01:02:32;;;;;;;4.32;2.97;;;16.10;99.90;;;;;;5014478;28;20018;-75
2022/09/16 01:05:25;;;;;;;6.15;3.03;;;16.00;99.90;;;;;;5013386;28;20107;-75
2022/09/16 01:07:53;;;;;;;4.45;2.85;;;16.10;99.90;;;;;;5012506;28;20483;-76
2022/09/16 01:10:21;;;;;;;6.35;3.08;;;16.10;99.90;;;;;;5012732;28;20022;-76
2022/09/16 01:13:01;;;;;;;6.18;3.33;;;16.10;99.90;;;;;;5013182;28;20018;-76
2022/09/16 01:16:05;;;;;;;5.50;3.05;;;16.00;99.90;;;;;;5013905;28;20033;-76
2022/09/16 01:18:46;;;;;;;5.05;3.38;;;16.00;99.90;;;;;;5012600;28;20352;-76
2022/09/16 01:21:22;;;;;;;4.37;2.90;;;16.00;99.90;;;;;;5013762;28;20451;-76
2022/09/16 01:24:12;;;;;;;12.15;3.58;;;16.10;99.90;;;;;;5014059;28;20079;-76
2022/09/16 01:26:49;;;;;;;8.63;3.08;;;16.00;99.90;;;;;;5013176;28;20034;-75
2022/09/16 01:29:30;;;;;;;4.28;3.03;;;16.00;99.90;;;;;;5013638;28;20022;-76
2022/09/16 01:32:28;;;;;;;6.55;3.05;;;15.90;99.90;;;;;;5012816;28;20183;-76
2022/09/16 01:35:15;;;;;;;7.13;3.03;;;15.90;99.90;;;;;;5012611;28;20038;-76
2022/09/16 01:38:08;;;;;;;5.78;2.97;;;15.90;99.90;;;;;;5014140;28;20121;-76
2022/09/16 01:40:38;;;;;;;8.63;3.28;;;15.90;99.90;;;;;;5012200;28;20054;-76
2022/09/16 01:43:20;;;;;;;7.13;2.80;;;15.90;99.90;;;;;;5013097;28;20022;-76
2022/09/16 01:46:05;;;;;;;;;;;15.80;99.90;;;;;;5014393;28;20018;-75
2022/09/16 01:48:56;;;;;;;4.05;3.00;;;15.80;99.90;;;;;;5001437;28;20294;-75
2022/09/16 01:51:54;;;;;;;4.45;3.03;;;15.80;99.90;;;;;;5013225;28;20061;-75
2022/09/16 01:54:34;;;;;;;4.93;2.42;;;15.70;99.90;;;;;;5011877;28;20077;-76
2022/09/16 01:57:34;;;;;;;6.03;2.90;;;15.70;99.90;;;;;;5012638;28;20030;-75
2022/09/16 02:00:09;;;;;;;6.00;2.80;;;15.70;99.90;;;;;;5013489;28;20046;-75
2022/09/16 02:02:44;;;;;;;8.98;3.38;;;15.70;99.90;;;;;;5011763;28;20462;-76
2022/09/16 02:05:15;;;;;;;6.82;3.40;;;15.70;99.90;;;;;;5012225;28;20057;-76
2022/09/16 02:07:47;;;;;;;7.30;3.88;;;15.80;99.90;;;;;;5012400;28;20029;-76
2022/09/16 02:10:21;;;;;;;4.72;3.10;;;15.80;99.90;;;;;;5013032;28;20046;-76
2022/09/16 02:12:49;;;;;;;7.35;3.05;;;15.90;99.90;;;;;;5012211;28;20529;-75
2022/09/16 02:15:21;;;;;;;4.60;3.05;;;15.70;99.90;;;;;;5011535;28;20025;-75
2022/09/16 02:17:49;;;;;;;;;;;15.80;99.90;;;;;;5012539;28;20521;-76
2022/09/16 02:20:23;;;;;;;7.63;2.97;;;15.80;99.90;;;;;;5012818;28;19909;-76
2022/09/16 02:22:54;;;;;;;5.88;3.30;;;15.70;99.90;;;;;;5012069;28;20508;-76
2022/09/16 02:25:21;;;;;;;6.82;3.63;;;15.80;99.90;;;;;;5012381;28;20033;-76
2022/09/16 02:27:49;;;;;;;6.80;3.30;;;15.90;99.90;;;;;;5011950;28;20038;-75
2022/09/16 02:30:18;;;;;;;9.20;3.67;;;15.90;99.90;;;;;;5011318;28;20017;-76
2022/09/16 02:32:51;;;;;;;6.50;3.05;;;15.90;99.90;;;;;;5013147;28;20022;-76
2022/09/16 02:35:18;;;;;;;7.95;4.00;;;15.90;99.90;;;;;;5010747;28;20060;-76
2022/09/16 02:38:03;;;;;;;9.05;4.40;;;16.00;99.90;;;;;;5011803;28;20026;-75
2022/09/16 02:40:43;;;;;;;8.63;4.38;;;16.00;99.90;;;;;;5011264;28;20103;-76
2022/09/16 02:43:09;;;;;;;7.53;4.72;;;15.90;99.90;;;;;;5013035;28;20018;-76
2022/09/16 02:45:50;;;;;;;8.52;4.57;;;15.90;99.90;;;;;;5012398;28;20022;-76
2022/09/16 02:48:21;;;;;;;12.10;5.32;;;15.90;99.90;;;;;;5012049;28;20026;-76
2022/09/16 02:50:58;;;;;;;8.57;4.90;;;15.90;99.90;;;;;;5012910;28;20026;-76
2022/09/16 02:53:24;;;;;;;6.07;3.80;;;15.90;99.90;;;;;;5012339;28;20014;-76
2022/09/16 02:55:59;;;;;;;9.57;3.95;;;16.00;99.90;;;;;;5012790;28;20045;-76
2022/09/16 02:58:24;;;;;;;6.25;3.58;;;16.00;99.90;;;;;;5011037;28;20029;-75
2022/09/16 03:00:53;;;;;;;7.43;4.22;;;16.00;99.90;;;;;;5011615;28;20026;-75
2022/09/16 03:03:19;;;;;;;14.30;4.72;;;16.00;99.90;;;;;;5012275;28;20076;-76
2022/09/16 03:06:07;;;;;;;8.48;4.30;;;16.00;99.90;;;;;;5011493;28;20021;-75
2022/09/16 03:08:34;;;;;;;7.97;3.90;;;15.90;99.90;;;;;;5010899;28;20410;-76
2022/09/16 03:11:30;;;;;;;7.07;4.10;;;16.00;99.90;;;;;;5011801;28;20080;-76
2022/09/16 03:14:04;;;;;;;9.05;4.32;;;15.80;99.90;;;;;;5012657;28;20037;-75
2022/09/16 03:16:45;;;;;;;6.85;4.53;;;15.90;99.90;;;;;;5010850;28;20026;-76
2022/09/16 03:19:55;;;;;;;13.93;4.88;;;15.80;99.90;;;;;;5011570;28;20026;-75
2022/09/16 03:22:57;;;;;;;6.70;4.57;;;15.80;99.90;;;;;;5012311;28;20062;-76
2022/09/16 03:25:32;;;;;;;7.25;4.28;;;15.90;99.90;;;;;;5010789;28;20447;-75
2022/09/16 03:28:10;;;;;;;8.93;4.22;;;15.90;99.90;;;;;;5011498;28;20029;-75
2022/09/16 03:30:42;;;;;;;11.77;4.20;;;15.90;99.90;;;;;;5010761;28;20026;-75
2022/09/16 03:33:25;;;;;;;6.88;4.38;;;16.00;99.90;;;;;;5011164;28;20068;-75
2022/09/16 03:35:55;;;;;;;6.47;4.20;;;16.00;99.90;;;;;;5011226;28;20034;-75
2022/09/16 03:38:21;;;;;;;7.00;4.28;;;15.90;99.90;;;;;;5010274;28;20022;-76
2022/09/16 03:40:47;;;;;;;9.35;3.90;;;15.90;99.90;;;;;;5011155;28;20018;-75
2022/09/16 03:43:15;;;;;;;6.65;4.20;;;15.90;99.90;;;;;;5011251;28;20026;-75
2022/09/16 03:45:41;;;;;;;7.40;4.03;;;15.90;99.90;;;;;;5010554;28;20057;-76
2022/09/16 03:48:08;;;;;;;7.18;3.90;;;16.00;99.90;;;;;;5012368;28;20029;-75
2022/09/16 03:50:34;;;;;;;6.88;3.83;;;15.90;99.90;;;;;;5011754;28;20359;-75
2022/09/16 03:53:00;;;;;;;7.40;4.10;;;15.90;99.90;;;;;;5012408;28;20077;-75
2022/09/16 03:55:25;;;;;;;8.50;3.88;;;16.00;99.90;;;;;;5010390;28;20501;-76
2022/09/16 03:57:54;;;;;;;5.28;3.92;;;16.00;99.90;;;;;;5012292;28;20169;-75
2022/09/16 04:00:21;;;;;;;11.75;4.15;;;16.00;99.90;;;;;;5011422;28;20029;-75
2022/09/16 04:02:46;;;;;;;9.40;3.75;;;15.90;99.90;;;;;;5012273;28;20026;-75
2022/09/16 04:05:12;;;;;;;11.65;4.60;;;16.00;99.90;;;;;;5010990;28;20466;-75
2022/09/16 04:07:38;;;;;;;10.65;3.85;;;16.00;99.90;;;;;;5013003;28;20229;-75
2022/09/16 04:10:05;;;;;;;11.40;4.90;;;16.00;99.90;;;;;;5014553;28;20057;-75
2022/09/16 04:12:30;;;;;;;8.20;4.05;;;16.00;99.90;;;;;;5014773;28;20018;-75
2022/09/16 04:14:56;;;;;;;6.05;4.00;;;16.00;99.90;;;;;;5014472;28;20037;-75
2022/09/16 04:17:22;;;;;;;8.05;3.78;;;16.00;99.90;;;;;;5013749;28;20028;-76
2022/09/16 04:19:48;;;;;;;13.88;4.20;;;16.00;99.90;;;;;;5014164;28;20028;-75
2022/09/16 04:22:13;;;;;;;6.22;3.45;;;16.00;99.90;;;;;;5015523;28;20017;-75
2022/09/16 04:24:40;;;;;;;9.80;4.45;;;16.00;99.90;;;;;;5013234;28;20487;-74
2022/09/16 04:27:06;;;;;;;5.80;3.75;;;16.00;99.90;;;;;;5014078;28;20034;-75
2022/09/16 04:29:31;;;;;;;8.77;3.97;;;16.00;99.90;;;;;;5014482;28;20076;-76
2022/09/16 04:31:57;;;;;;;6.88;3.55;;;15.90;99.90;;;;;;5014068;28;20470;-75
2022/09/16 04:34:23;;;;;;;10.98;3.75;;;15.90;99.90;;;;;;5014716;28;20128;-76
2022/09/16 04:36:49;;;;;;;13.30;3.40;;;15.90;99.90;;;;;;5013862;28;20113;-75
2022/09/16 04:39:14;;;;;;;4.97;3.45;;;15.90;99.90;;;;;;5014901;28;20032;-75
2022/09/16 04:41:40;;;;;;;7.38;3.50;;;15.90;99.90;;;;;;5014536;28;20409;-75
2022/09/16 04:44:06;;;;;;;5.60;3.20;;;15.90;99.90;;;;;;5014001;28;20095;-75
2022/09/16 04:46:31;;;;;;;7.38;3.38;;;15.90;99.90;;;;;;5013192;28;20367;-75
2022/09/16 04:48:58;;;;;;;4.55;3.10;;;15.90;99.90;;;;;;5015003;28;20029;-76
2022/09/16 04:51:26;;;;;;;7.65;2.90;;;15.90;99.90;;;;;;5014359;28;20247;-76
2022/09/16 04:53:53;;;;;;;6.32;3.35;;;15.90;99.90;;;;;;5013557;28;20033;-76
2022/09/16 04:56:22;;;;;;;6.55;2.88;;;15.80;99.90;;;;;;5014930;28;20121;-75
2022/09/16 04:58:50;;;;;;;7.25;3.40;;;15.80;99.90;;;;;;5014777;28;20022;-76
2022/09/16 05:01:22;;;;;;;5.75;2.83;;;15.90;99.90;;;;;;5014750;28;20049;-74
2022/09/16 05:03:50;;;;;;;5.65;3.05;;;15.80;99.90;;;;;;5014923;28;20053;-75
2022/09/16 05:06:19;;;;;;;4.97;3.40;;;15.80;99.90;;;;;;5014645;28;20029;-75
2022/09/16 05:08:44;;;;;;;3.88;2.65;;;15.80;99.90;;;;;;5013686;28;20422;-75
2022/09/16 05:11:15;;;;;;;5.38;2.97;;;15.80;99.90;;;;;;5014661;28;20060;-75
2022/09/16 05:13:41;;;;;;;6.47;3.30;;;15.80;99.90;;;;;;5012716;28;20037;-75
2022/09/16 05:16:15;;;;;;;10.73;5.10;;;15.80;99.90;;;;;;5014195;28;20255;-75
2022/09/16 05:18:42;;;;;;;6.13;3.58;;;15.80;99.90;;;;;;5013856;28;20030;-76
2022/09/16 05:21:11;;;;;;;5.93;3.05;;;15.80;99.90;;;;;;5013126;28;20076;-75
2022/09/16 05:23:37;;;;;;;4.78;2.95;;;15.70;99.90;;;;;;5013808;28;20104;-76
2022/09/16 05:26:06;;;;;;;5.22;2.92;;;15.70;99.90;;;;;;5013107;28;20097;-76
2022/09/16 05:28:33;;;;;;;4.60;3.28;;;15.80;99.90;;;;;;5012522;28;20088;-76
2022/09/16 05:31:07;;;;;;;5.78;2.78;;;15.70;99.90;;;;;;5014208;28;20083;-75
2022/09/16 05:33:33;;;;;;;5.57;2.97;;;15.70;99.90;;;;;;5012003;28;20495;-75
2022/09/16 05:36:10;;;;;;;4.60;2.70;;;15.70;99.90;;;;;;5012919;28;20054;-76
2022/09/16 05:38:36;;;;;;;5.68;2.60;;;15.70;99.90;;;;;;5012172;28;20473;-76
2022/09/16 05:41:03;;;;;;;7.32;2.63;;;15.70;99.90;;;;;;5012891;28;20113;-76
2022/09/16 05:43:30;;;;;;;6.13;2.50;;;15.60;99.90;;;;;;5012194;28;20112;-76
2022/09/16 05:45:56;;;;;;;5.90;2.90;;;15.60;99.90;;;;;;5012653;28;20021;-76
2022/09/16 05:48:22;;;;;;;6.78;2.17;;;15.60;99.90;;;;;;5013963;28;20443;-75
2022/09/16 05:50:56;;;;;;;5.57;2.00;;;15.60;99.90;;;;;;5011964;28;20026;-75
2022/09/16 05:53:23;;;;;;;6.60;2.42;;;15.50;99.90;;;;;;5013758;28;20026;-76
2022/09/16 05:56:07;;;;;;;9.05;5.15;;;15.50;99.90;;;;;;5011902;28;20030;-75
2022/09/16 05:58:34;;;;;;;5.18;2.40;;;15.50;99.90;;;;;;5011982;28;20475;-76
2022/09/16 06:01:08;;;;;;;5.07;2.30;;;15.40;99.90;;;;;;5012873;28;20018;-76
2022/09/16 06:03:36;;;;;;;5.88;2.40;;;15.40;99.90;;;;;;5011881;28;20477;-76
2022/09/16 06:06:12;;;;;;;3.13;2.20;;;15.40;99.90;;;;;;5013620;28;20097;-76
2022/09/16 06:08:38;;;;;;;4.47;2.30;;;15.40;99.90;;;;;;5013039;28;20018;-76
2022/09/16 06:11:07;;;;;;;6.40;2.40;;;15.40;99.90;;;;;;5012520;28;20021;-76
2022/09/16 06:13:33;;;;;;;4.50;2.17;;;15.30;99.90;;;;;;5011436;28;20025;-76
2022/09/16 06:15:59;;;;;;;5.00;2.25;;;15.30;99.90;;;;;;5013439;28;20055;-76
2022/09/16 06:18:28;;;;;;;7.85;2.80;;;15.30;99.90;;;;;;5012224;28;20160;-76
2022/09/16 06:20:53;;;;;;;11.43;2.63;;;15.30;99.90;;;;;;5012183;28;20463;-76
2022/09/16 06:23:19;;;;;;;5.28;2.45;;;15.30;99.90;;;;;;5012049;28;20080;-75
2022/09/16 06:25:46;;;;;;;4.60;2.30;;;15.40;99.90;;;;;;5012436;28;20022;-75
2022/09/16 06:28:12;;;;;;;9.32;2.90;;;15.40;99.90;;;;;;5013233;28;20026;-75
2022/09/16 06:30:38;;;;;;;5.28;2.28;;;15.30;99.90;;;;;;5010442;28;20025;-76
2022/09/16 06:33:04;;;;;;;6.30;2.30;;;15.20;99.90;;;;;;5011780;28;20022;-76
2022/09/16 06:35:30;;;;;;;6.90;2.55;;;15.20;99.90;;;;;;5012587;28;20485;-76
2022/09/16 06:37:56;;;;;;;5.50;2.45;;;15.20;99.90;;;;;;5012064;28;20026;-76
2022/09/16 06:40:21;;;;;;;4.97;3.10;;;15.20;99.90;;;;;;5011990;28;20017;-76
2022/09/16 06:42:47;;;;;;;7.90;2.47;;;15.20;99.90;;;;;;5011288;28;20365;-76
2022/09/16 06:45:13;;;;;;;6.90;2.75;;;15.20;99.90;;;;;;5013300;28;20037;-76
2022/09/16 06:47:38;;;;;;;6.95;2.65;;;15.20;99.90;;;;;;5011180;28;20028;-76
2022/09/16 06:50:05;;;;;;;5.97;2.55;;;15.20;99.90;;;;;;5012931;28;20022;-76
2022/09/16 06:52:30;;;;;;;6.80;2.95;;;15.20;99.90;;;;;;5011080;28;20022;-76
2022/09/16 06:54:56;;;;;;;8.80;2.83;;;15.20;99.90;;;;;;5011597;28;20372;-76
2022/09/16 06:57:22;;;;;;;4.38;2.80;;;15.20;99.90;;;;;;5013010;28;20033;-76
2022/09/16 06:59:49;;;;;;;4.40;2.30;;;15.30;99.90;;;;;;5010988;28;20351;-76
2022/09/16 07:02:15;;;;;;;6.55;2.72;;;15.20;99.90;;;;;;5011684;28;20018;-76
2022/09/16 07:04:41;;;;;;;5.40;3.28;;;15.30;99.90;;;;;;5011036;28;20128;-76
2022/09/16 07:07:07;;;;;;;6.80;2.90;;;15.20;99.90;;;;;;5012774;28;20375;-75
2022/09/16 07:09:32;;;;;;;8.13;3.33;;;15.20;99.90;;;;;;5010871;28;20064;-76
2022/09/16 07:11:58;;;;;;;5.40;2.70;;;15.30;99.90;;;;;;5012875;28;20022;-76
2022/09/16 07:14:24;;;;;;;5.10;2.75;;;15.30;99.90;;;;;;5011275;28;20112;-76
2022/09/16 07:16:51;;;;;;;5.70;2.53;;;15.30;99.90;;;;;;5012124;28;20033;-76
2022/09/16 07:19:16;;;;;;;5.35;3.20;;;15.40;99.90;;;;;;5011420;28;20049;-76
2022/09/16 07:21:42;;;;;;;6.28;3.10;;;15.40;99.90;;;;;;5010766;28;20064;-76
2022/09/16 07:24:10;;;;;;;8.00;3.53;;;15.40;99.90;;;;;;5011244;28;20348;-76
2022/09/16 07:26:36;;;;;;;6.43;2.70;;;15.50;99.90;;;;;;5010750;28;20030;-76
2022/09/16 07:29:05;;;;;;;6.43;3.47;;;15.50;99.90;;;;;;5012762;28;20025;-76
2022/09/16 07:31:36;;;;;;;8.35;3.22;;;15.50;99.90;;;;;;5011042;28;20026;-76
2022/09/16 07:34:04;;;;;;;6.60;3.13;;;15.50;99.90;;;;;;5011261;28;20045;-76
2022/09/16 07:36:32;;;;;;;6.38;3.35;;;15.50;99.90;;;;;;5011346;28;20022;-76
2022/09/16 07:38:58;;;;;;;6.43;3.13;;;15.50;99.90;;;;;;5012489;28;20029;-76
2022/09/16 07:41:26;;;;;;;10.70;3.28;;;15.60;99.90;;;;;;5012464;28;20171;-75
2022/09/16 07:43:53;;;;;;;6.93;3.22;;;15.60;99.90;;;;;;5015655;28;20030;-76
2022/09/16 07:46:19;;;;;;;6.57;3.58;;;15.60;99.90;;;;;;5014605;28;20127;-76
2022/09/16 07:48:46;;;;;;;8.30;3.40;;;15.60;99.90;;;;;;5014440;28;20482;-76
2022/09/16 07:51:15;;;;;;;7.43;3.97;;;15.70;99.90;;;;;;5014754;28;20076;-75
2022/09/16 07:53:41;;;;;;;7.55;4.70;;;15.80;99.90;;;;;;5015618;28;21969;-76
2022/09/16 07:56:16;;;;;;;6.20;3.63;;;15.80;99.90;;;;;;5014438;28;20493;-75
2022/09/16 07:58:44;;;;;;;6.50;3.78;;;15.80;99.90;;;;;;5015393;28;20026;-76
2022/09/16 08:01:11;;;;;;;7.50;3.20;;;15.90;99.90;;;;;;5014789;28;20030;-76
2022/09/16 08:03:38;;;;;;;6.75;3.67;;;15.80;99.90;;;;;;5014239;28;20055;-76
2022/09/16 08:06:15;;;;;;;6.72;3.45;;;15.90;99.90;;;;;;5014484;28;20032;-76
2022/09/16 08:08:41;;;;;;;8.23;3.05;;;15.90;99.90;;;;;;5013988;28;20022;-76
2022/09/16 08:11:08;;;;;;;7.75;3.35;;;15.90;99.90;;;;;;5014535;28;20026;-76
2022/09/16 08:13:36;;;;;;;5.53;2.90;;;15.80;99.90;;;;;;5013668;28;20046;-77
2022/09/16 08:16:07;;;;;;;5.80;2.33;;;15.70;99.90;;;;;;5014362;28;20017;-76
2022/09/16 08:18:33;;;;;;;6.28;2.80;;;15.60;99.90;;;;;;5013976;28;20038;-76
2022/09/16 08:21:08;;;;;;;6.13;2.60;;;15.70;99.90;;;;;;5013178;28;20068;-76
2022/09/16 08:23:37;;;;;;;3.45;2.30;;;15.60;99.90;;;;;;5014151;28;20034;-76
2022/09/16 08:26:04;;;;;;;5.10;2.97;;;15.60;99.90;;;;;;5013583;28;20030;-76
2022/09/16 08:28:30;;;;;;;6.15;2.65;;;15.60;99.90;;;;;;5013892;28;20030;-76
2022/09/16 08:31:01;;;;;;;3.65;2.50;;;15.60;99.90;;;;;;5013127;28;20033;-76
2022/09/16 08:33:27;;;;;;;5.40;2.17;;;15.70;99.90;;;;;;5013423;28;20057;-75
2022/09/16 08:36:04;;;;;;;6.88;2.42;;;15.70;99.90;;;;;;5012939;28;20032;-76
2022/09/16 08:38:30;;;;;;;7.13;2.35;;;15.60;99.90;;;;;;5013890;28;20117;-76
2022/09/16 08:41:17;;;;;;;4.65;2.47;;;15.70;99.90;;;;;;5012854;28;20033;-76
2022/09/16 08:44:00;;;;;;;9.90;2.13;;;15.70;99.90;;;;;;5012877;28;20092;-76
2022/09/16 08:46:51;;;;;;;4.45;2.10;;;15.70;99.90;;;;;;5014625;28;20022;-76
2022/09/16 08:49:27;;;;;;;5.78;2.75;;;15.70;99.90;;;;;;5013093;28;20057;-75
2022/09/16 08:51:57;;;;;;;4.05;2.30;;;15.70;99.90;;;;;;5012833;28;20394;-77
2022/09/16 08:54:46;;;;;;;6.13;2.45;;;15.70;99.90;;;;;;5013507;28;20052;-76
2022/09/16 08:57:20;;;;;;;3.90;2.40;;;15.60;99.90;;;;;;5013595;28;20036;-75
2022/09/16 08:59:51;;;;;;;3.80;2.17;;;15.60;99.90;;;;;;5012994;28;20026;-75
2022/09/16 09:02:53;;;;;;;4.72;2.67;;;15.70;99.90;;;;;;5013525;28;20517;-76
2022/09/16 09:05:55;;;;;;;6.47;2.88;;;15.70;99.90;;;;;;5013550;28;20030;-76
2022/09/16 09:08:41;;;;;;;4.57;2.80;;;15.80;99.90;;;;;;5014572;28;20537;-76
2022/09/16 09:11:36;;;;;;;4.28;2.63;;;15.80;99.90;;;;;;5014546;28;20098;-75
2022/09/16 09:14:14;;;;;;;7.07;3.28;;;15.90;99.90;;;;;;5012603;28;20032;-76
2022/09/16 09:17:27;;;;;;;9.18;3.13;;;15.80;99.90;;;;;;5013938;28;20036;-76
2022/09/16 09:20:21;;;;;;;12.35;3.03;;;15.80;99.90;;;;;;4972311;28;20090;-76
2022/09/16 09:23:11;;;;;;;5.18;3.28;;;15.80;99.90;;;;;;5013076;28;20052;-76
2022/09/16 09:25:57;;;;;;;7.07;3.08;;;15.80;99.90;;;;;;5012832;28;20030;-75
2022/09/16 09:28:57;;;;;;;9.27;3.50;;;15.90;99.90;;;;;;5014199;28;20041;-75
2022/09/16 09:31:33;;;;;;;9.60;3.53;;;15.90;99.90;;;;;;5012584;28;20049;-75
2022/09/16 09:34:19;;;;;;;5.60;3.50;;;15.90;99.90;;;;;;5011004;28;20046;-75
2022/09/16 09:37:03;;;;;;;4.57;3.00;;;16.00;99.90;;;;;;5012150;28;20370;-76
2022/09/16 09:39:48;;;;;;;8.52;3.83;;;15.90;99.90;;;;;;5012931;28;20030;-76
2022/09/16 09:42:38;;;;;;;4.38;2.97;;;15.90;99.90;;;;;;5014089;28;20030;-75
2022/09/16 09:45:17;;;;;;;8.18;3.53;;;15.80;99.90;;;;;;5016016;28;20084;-75
2022/09/16 09:47:48;;;;;;;6.07;2.88;;;15.70;99.90;;;;;;4992444;28;20379;-76
2022/09/16 09:50:20;;;;;;;4.95;2.60;;;15.70;99.90;;;;;;4992841;28;20037;-75
2022/09/16 09:53:10;;;;;;;3.58;2.60;;;15.70;99.90;;;;;;4992411;28;20031;-75
2022/09/16 09:55:37;;;;;;;6.78;3.22;;;15.70;99.90;;;;;;4992835;28;20089;-76
2022/09/16 09:58:37;;;;;;;9.13;2.95;;;15.70;99.90;;;;;;4992236;28;20027;-75
2022/09/16 10:01:03;;;;;;;10.48;2.88;;;15.80;99.90;;;;;;4974067;28;20030;-76
2022/09/16 10:03:30;;;;;;;4.78;2.53;;;15.80;99.90;;;;;;4993974;28;20142;-76
2022/09/16 10:05:55;;;;;;;4.18;2.78;;;15.80;99.90;;;;;;4991754;28;20030;-76
2022/09/16 10:08:35;;;;;;;7.30;2.92;;;15.90;99.90;;;;;;4992893;28;20072;-76
2022/09/16 10:11:13;;;;;;;7.00;3.13;;;15.80;99.90;;;;;;4993129;28;20105;-76
2022/09/16 10:13:51;;;;;;;6.45;3.03;;;15.80;99.90;;;;;;4993533;28;20030;-76
2022/09/16 10:16:19;;;;;;;5.47;2.83;;;15.90;99.90;;;;;;4992765;28;20451;-75
2022/09/16 10:18:56;;;;;;;9.65;3.35;;;15.90;99.90;;;;;;4991918;28;20490;-76
2022/09/16 10:21:22;;;;;;;7.25;3.53;;;15.90;99.90;;;;;;4992678;28;20030;-76
2022/09/16 10:23:56;;;;;;;6.93;3.40;;;16.00;99.90;;;;;;4992065;28;20523;-75
2022/09/16 10:26:26;;;;;;;6.40;3.20;;;16.10;99.90;;;;;;4992412;28;20038;-76
2022/09/16 10:29:23;;;;;;;8.10;3.97;;;16.20;99.90;;;;;;4993105;28;20065;-75
2022/09/16 10:31:49;;;;;;;6.00;3.03;;;16.30;99.90;;;;;;4992630;28;20049;-76
2022/09/16 10:34:32;;;;;;;6.78;3.25;;;16.30;99.90;;;;;;4993076;28;20114;-75
2022/09/16 10:37:12;;;;;;;6.90;3.10;;;16.40;99.90;;;;;;4991603;28;20026;-76
2022/09/16 10:39:42;;;;;;;3.90;2.83;;;16.60;99.90;;;;;;4993217;28;20026;-75
2022/09/16 10:42:27;;;;;;;4.15;2.83;;;16.60;99.90;;;;;;4992153;28;20472;-76
2022/09/16 10:45:00;;;;;;;4.25;2.42;;;16.70;99.90;;;;;;4992799;28;20030;-76
2022/09/16 10:47:28;;;;;;;8.27;2.80;;;16.70;99.90;;;;;;4992140;28;20027;-76
2022/09/16 10:50:03;;;;;;;6.60;2.60;;;16.80;99.90;;;;;;4991489;28;20035;-76
2022/09/16 10:52:31;;;;;;;8.35;2.53;;;16.70;99.90;;;;;;4993322;28;20026;-75
2022/09/16 10:54:56;;;;;;;5.30;2.95;;;16.80;99.90;;;;;;4991373;28;20129;-75
2022/09/16 10:57:27;;;;;;;3.08;2.15;;;16.80;99.90;;;;;;4992968;28;20152;-75
2022/09/16 11:00:11;;;;;;;2.33;1.85;;;16.80;99.90;;;;;;4991503;28;20034;-75
2022/09/16 11:02:55;;;;;;;4.95;1.90;;;16.80;99.90;;;;;;4991626;28;20034;-75
2022/09/16 11:05:43;;;;;;;5.80;1.90;;;16.90;99.90;;;;;;4993071;28;20034;-76
2022/09/16 11:08:15;;;;;;;2.83;1.50;;;16.90;99.90;;;;;;4993390;28;20029;-75
2022/09/16 11:11:00;;;;;;;2.28;1.20;;;17.00;99.90;;;;;;4992005;28;20122;-76
2022/09/16 11:13:55;;;;;;;3.13;0.88;;;16.90;99.90;;;;;;4991943;28;20091;-76
2022/09/16 11:16:26;;;;;;;3.28;1.25;;;16.90;99.90;;;;;;4993139;28;20113;-76
2022/09/16 11:19:13;;;;;;;2.40;1.10;;;17.10;99.90;;;;;;4995254;28;20483;-76
2022/09/16 11:22:06;;;;;;;2.85;1.00;;;17.20;99.90;;;;;;4997243;28;20033;-75
2022/09/16 11:24:56;;;;;;;3.55;1.00;;;17.20;99.90;;;;;;4995595;28;20027;-75
2022/09/16 11:27:22;;;;;;;2.15;0.85;;;17.30;99.90;;;;;;4995950;28;20031;-75
2022/09/16 11:29:48;;;;;;;1.60;0.80;;;17.20;99.90;;;;;;4995045;28;20463;-76
2022/09/16 11:32:34;;;;;;;3.42;1.00;;;17.30;99.90;;;;;;4997018;28;20041;-76
2022/09/16 11:35:38;;;;;;;1.38;0.70;;;17.40;99.90;;;;;;4996253;28;20134;-76
2022/09/16 11:38:28;;;;;;;1.83;0.70;;;17.50;99.90;;;;;;4994934;28;20379;-76
2022/09/16 11:41:23;;;;;;;1.95;0.60;;;17.60;99.90;;;;;;4996153;28;20026;-76
2022/09/16 11:44:15;;;;;;;3.03;1.10;;;17.80;99.90;;;;;;4995603;28;20096;-76
2022/09/16 11:46:41;;;;;;;3.25;0.80;;;17.90;99.90;;;;;;4996727;28;20038;-76
2022/09/16 11:49:34;;;;;;;3.65;0.98;;;17.90;99.90;;;;;;4996016;28;20113;-76
2022/09/16 11:52:19;;;;;;;2.13;0.68;;;17.80;99.10;;;;;;4995815;28;20031;-75
2022/09/16 11:54:48;;;;;;;2.00;0.70;;;17.90;99.80;;;;;;4994937;28;20042;-76
2022/09/16 11:57:19;;;;;;;1.38;0.70;;;18.00;99.60;;;;;;4996339;28;20044;-76
2022/09/16 11:59:48;;;;;;;5.25;0.80;;;18.10;99.90;;;;;;4996476;28;20018;-75
2022/09/16 12:02:35;;;;;;;1.60;0.57;;;18.20;99.50;;;;;;4994981;28;20034;-76
2022/09/16 12:05:23;;;;;;;1.13;0.60;;;18.10;98.80;;;;;;4994455;28;20030;-76
2022/09/16 12:08:04;;;;;;;4.30;1.02;;;18.10;98.30;;;;;;4995755;28;20029;-76
2022/09/16 12:10:44;;;;;;;2.70;0.90;;;18.30;98.60;;;;;;4994967;28;20096;-76
2022/09/16 12:13:24;;;;;;;2.45;0.90;;;18.20;98.00;;;;;;4994247;28;20056;-76
2022/09/16 12:15:57;;;;;;;2.45;0.73;;;18.20;97.60;;;;;;4995167;28;20030;-76
2022/09/16 12:18:31;;;;;;;2.22;0.70;;;18.40;97.70;;;;;;4996082;28;20054;-76
2022/09/16 12:21:33;;;;;;;3.47;1.58;;;18.50;97.30;;;;;;4993881;28;20037;-76
2022/09/16 12:24:22;;;;;;;4.47;1.73;;;18.70;96.60;;;;;;4993975;28;20503;-76
2022/09/16 12:27:01;;;;;;;3.00;0.98;;;18.70;96.10;;;;;;4993888;28;20077;-76
2022/09/16 12:29:48;;;;;;;3.55;1.10;;;18.80;95.50;;;;;;4995533;28;20030;-76
2022/09/16 12:32:21;;;;;;;1.85;0.85;;;19.00;96.30;;;;;;4994718;28;20387;-75
2022/09/16 12:34:52;;;;;;;2.95;1.08;;;19.10;95.70;;;;;;4995603;28;20062;-75
2022/09/16 12:37:34;;;;;;;1.88;0.60;;;18.80;95.40;;;;;;4995666;28;20105;-75
2022/09/16 12:40:01;;;;;;;1.73;0.60;;;18.70;94.70;;;;;;4993828;28;20033;-76
2022/09/16 12:43:11;;;;;;;2.58;0.73;;;18.40;95.50;;;;;;4994301;28;20027;-75
2022/09/16 12:46:04;;;;;;;2.50;1.08;;;18.30;95.50;;;;;;4994261;28;20030;-76
2022/09/16 12:48:53;;;;;;;4.53;0.73;;;18.30;96.00;;;;;;4995477;28;20030;-76
2022/09/16 12:51:33;;;;;;;1.38;0.95;;;18.40;96.50;;;;;;4995592;28;20033;-76
2022/09/16 12:54:07;;;;;;;4.03;0.80;;;18.40;95.70;;;;;;4993413;28;20468;-76
2022/09/16 12:56:58;;;;;;;3.13;0.98;;;18.10;95.90;;;;;;4995103;28;20113;-76
2022/09/16 12:59:46;;;;;;;4.70;0.60;;;18.10;95.90;;;;;;4994162;28;20110;-76
2022/09/16 13:02:17;;;;;;;5.60;0.85;;;18.70;95.60;;;;;;4993356;28;20499;-76
2022/09/16 13:04:52;;;;;;;8.43;0.77;;;19.50;93.80;;;;;;4994076;28;20034;-75
2022/09/16 13:07:32;;;;;;;2.05;0.60;;;20.20;93.50;;;;;;4993841;28;20049;-76
2022/09/16 13:10:24;;;;;;;2.22;0.55;;;20.90;91.70;;;;;;4994488;28;20109;-76
2022/09/16 13:12:51;;;;;;;;;;;21.70;90.00;;;;;;4992616;28;20137;-76
2022/09/16 13:15:32;;;;;;;2.78;0.57;;;22.50;86.70;;;;;;5009962;28;19913;-76
2022/09/16 13:18:15;;;;;;;1.27;0.52;;;22.20;87.60;;;;;;4993054;28;20026;-76
2022/09/16 13:20:57;;;;;;;2.30;0.80;;;21.50;84.30;;;;;;4994897;28;20027;-76
2022/09/16 13:23:32;;;;;;;1.90;0.50;;;21.30;83.10;;;;;;4995026;28;20161;-76